createdAt,value
2023-01-20T00:01:57.945Z,100120.31
2023-01-20T00:04:24.340Z,100118.66
2023-01-20T00:06:50.829Z,100119.47
2023-01-20T00:09:18.488Z,100120.81
2023-01-20T00:11:44.992Z,100122.53
2023-01-20T00:14:11.752Z,100120.97
2023-01-20T00:16:38.686Z,100128.50
2023-01-20T00:19:05.320Z,100135.19
2023-01-20T00:21:31.978Z,100133.13
2023-01-20T00:23:58.459Z,100136.84
2023-01-20T00:26:25.679Z,100144.16
2023-01-20T00:28:57.567Z,100140.22
2023-01-20T00:31:29.523Z,100146.22
2023-01-20T00:33:57.975Z,100140.47
2023-01-20T00:36:26.155Z,100144.41
2023-01-20T00:41:50.363Z,100149.41
2023-01-20T00:44:16.827Z,100155.31
2023-01-20T00:46:43.288Z,100160.56
2023-01-20T00:49:10.703Z,100165.66
2023-01-20T00:51:37.097Z,100167.56
2023-01-20T00:54:03.833Z,100173.72
2023-01-20T00:56:30.218Z,100174.16
2023-01-20T00:58:56.762Z,100172.00
2023-01-20T01:01:23.970Z,100170.69
2023-01-20T01:03:54.068Z,100165.16
2023-01-20T01:06:21.093Z,100166.13
2023-01-20T01:08:47.513Z,100177.81
2023-01-20T01:11:14.296Z,100174.53
2023-01-20T01:13:40.828Z,100186.78
2023-01-20T01:16:12.689Z,100186.81
2023-01-20T01:18:39.699Z,100194.44
2023-01-20T01:21:08.362Z,100194.59
2023-01-20T01:23:34.887Z,100189.66
2023-01-20T01:26:01.435Z,100197.19
2023-01-20T01:28:27.835Z,100198.84
2023-01-20T01:30:54.304Z,100194.63
2023-01-20T01:33:20.785Z,100199.06
2023-01-20T01:36:02.080Z,100199.97
2023-01-20T01:38:29.227Z,100195.06
2023-01-20T01:40:56.615Z,100194.09
2023-01-20T01:43:32.753Z,100196.31
2023-01-20T01:45:59.963Z,100201.16
2023-01-20T01:48:35.949Z,100207.69
2023-01-20T01:51:11.148Z,100209.28
2023-01-20T01:53:42.791Z,100206.94
2023-01-20T01:56:10.285Z,100200.66
2023-01-20T01:58:42.047Z,100206.75
2023-01-20T02:01:08.765Z,100206.84
2023-01-20T02:03:44.611Z,100197.41
2023-01-20T02:06:12.168Z,100201.59
2023-01-20T02:08:38.751Z,100203.00
2023-01-20T02:11:05.369Z,100202.72
2023-01-20T02:13:32.003Z,100216.59
2023-01-20T02:16:07.331Z,100221.44
2023-01-20T02:18:54.128Z,100224.50
2023-01-20T02:21:39.509Z,100228.19
2023-01-20T02:24:30.801Z,100216.66
2023-01-20T02:27:27.049Z,100215.25
2023-01-20T02:30:26.679Z,100226.72
2023-01-20T02:32:53.152Z,100227.31
2023-01-20T02:35:28.437Z,100219.22
2023-01-20T02:38:26.208Z,100239.91
2023-01-20T02:41:23.729Z,100236.41
2023-01-20T02:44:02.970Z,100241.22
2023-01-20T02:46:39.302Z,100250.25
2023-01-20T02:49:13.340Z,100255.03
2023-01-20T02:51:51.488Z,100247.75
2023-01-20T02:54:20.631Z,100255.13
2023-01-20T02:56:49.705Z,100261.13
2023-01-20T02:59:21.575Z,100259.06
2023-01-20T03:02:02.444Z,100265.09
2023-01-20T03:04:34.234Z,100265.66
2023-01-20T03:07:03.454Z,100272.75
2023-01-20T03:09:51.787Z,100280.34
2023-01-20T03:12:33.387Z,100282.25
2023-01-20T03:14:59.969Z,100285.66
2023-01-20T03:17:26.455Z,100280.22
2023-01-20T03:19:52.930Z,100294.63
2023-01-20T03:22:19.595Z,100293.72
2023-01-20T03:24:47.656Z,100302.19
2023-01-20T03:27:14.347Z,100303.13
2023-01-20T03:29:40.787Z,100304.50
2023-01-20T03:32:10.407Z,100310.19
2023-01-20T03:34:39.907Z,100311.38
2023-01-20T03:37:07.275Z,100307.06
2023-01-20T03:39:39.592Z,100308.22
2023-01-20T03:42:20.837Z,100313.88
2023-01-20T03:44:49.974Z,100310.66
2023-01-20T03:47:40.862Z,100316.47
2023-01-20T03:50:14.999Z,100319.28
2023-01-20T03:52:59.422Z,100328.00
2023-01-20T03:55:32.035Z,100327.63
2023-01-20T03:58:08.544Z,100313.06
2023-01-20T04:00:38.097Z,100322.09
2023-01-20T04:03:09.252Z,100323.03
2023-01-20T04:05:38.653Z,100331.16
2023-01-20T04:08:08.700Z,100323.03
2023-01-20T04:10:38.678Z,100329.38
2023-01-20T04:13:05.349Z,100340.19
2023-01-20T04:15:39.961Z,100346.00
2023-01-20T04:18:16.625Z,100345.81
2023-01-20T04:20:46.189Z,100344.09
2023-01-20T04:23:20.814Z,100342.00
2023-01-20T04:25:47.255Z,100347.63
2023-01-20T04:28:13.646Z,100342.41
2023-01-20T04:30:40.147Z,100350.00
2023-01-20T04:33:06.576Z,100357.91
2023-01-20T04:35:33.113Z,100352.44
2023-01-20T04:37:59.563Z,100358.00
2023-01-20T04:40:26.430Z,100356.34
2023-01-20T04:42:52.887Z,100352.72
2023-01-20T04:45:19.417Z,100362.31
2023-01-20T04:47:45.934Z,100367.03
2023-01-20T04:50:14.015Z,100367.06
2023-01-20T04:52:40.677Z,100370.28
2023-01-20T04:55:07.665Z,100366.28
2023-01-20T04:57:34.123Z,100376.69
2023-01-20T05:00:00.766Z,100373.44
2023-01-20T05:02:27.517Z,100377.81
2023-01-20T05:04:53.947Z,100378.13
2023-01-20T05:07:20.398Z,100385.75
2023-01-20T05:09:46.815Z,100379.97
2023-01-20T05:12:13.234Z,100382.41
2023-01-20T05:14:39.639Z,100385.16
2023-01-20T05:17:06.054Z,100385.75
2023-01-20T05:19:32.466Z,100391.22
2023-01-20T05:22:00.194Z,100393.78
2023-01-20T05:24:26.669Z,100393.59
2023-01-20T05:26:53.055Z,100395.28
2023-01-20T05:29:19.487Z,100396.94
2023-01-20T05:31:46.017Z,100410.94
2023-01-20T05:34:12.481Z,100405.91
2023-01-20T05:36:38.917Z,100417.00
2023-01-20T05:39:05.451Z,100414.47
2023-01-20T05:41:32.310Z,100418.84
2023-01-20T05:43:58.721Z,100417.16
2023-01-20T05:46:25.198Z,100424.19
2023-01-20T05:48:51.688Z,100419.91
2023-01-20T05:51:18.209Z,100425.50
2023-01-20T05:53:44.642Z,100431.59
2023-01-20T05:56:13.792Z,100433.06
2023-01-20T05:58:40.190Z,100434.03
2023-01-20T06:01:08.207Z,100436.53
2023-01-20T06:03:35.162Z,100437.63
2023-01-20T06:06:03.370Z,100439.81
2023-01-20T06:08:29.858Z,100445.06
2023-01-20T06:10:56.291Z,100450.22
2023-01-20T06:13:22.827Z,100451.69
2023-01-20T06:15:53.930Z,100457.88
2023-01-20T06:18:21.775Z,100458.78
2023-01-20T06:20:48.578Z,100461.38
2023-01-20T06:23:15.203Z,100471.66
2023-01-20T06:25:42.116Z,100467.53
2023-01-20T06:28:09.037Z,100471.94
2023-01-20T06:30:35.620Z,100470.47
2023-01-20T06:33:02.092Z,100472.38
2023-01-20T06:35:28.503Z,100477.13
2023-01-20T06:37:58.791Z,100472.69
2023-01-20T06:40:25.356Z,100474.75
2023-01-20T06:42:51.744Z,100478.91
2023-01-20T06:45:18.775Z,100486.94
2023-01-20T06:47:49.255Z,100485.16
2023-01-20T06:50:16.555Z,100484.44
2023-01-20T06:52:42.976Z,100479.28
2023-01-20T06:55:09.681Z,100491.34
2023-01-20T06:57:36.289Z,100492.91
2023-01-20T07:00:03.938Z,100489.72
2023-01-20T07:02:30.376Z,100488.63
2023-01-20T07:04:56.841Z,100499.09
2023-01-20T07:07:23.282Z,100499.09
2023-01-20T07:09:50.553Z,100491.47
2023-01-20T07:12:16.944Z,100497.44
2023-01-20T07:14:43.494Z,100505.22
2023-01-20T07:17:12.633Z,100508.56
2023-01-20T07:19:39.042Z,100514.53
2023-01-20T07:22:05.478Z,100522.25
2023-01-20T07:24:31.883Z,100521.47
2023-01-20T07:26:58.345Z,100527.59
2023-01-20T07:29:24.789Z,100530.28
2023-01-20T07:31:51.279Z,100536.31
2023-01-20T07:34:17.702Z,100536.38
2023-01-20T07:36:44.253Z,100548.56
2023-01-20T07:39:11.538Z,100558.09
2023-01-20T07:41:37.928Z,100558.06
2023-01-20T07:44:04.477Z,100562.72
2023-01-20T07:46:31.477Z,100570.00
2023-01-20T07:48:57.951Z,100576.50
2023-01-20T07:51:24.342Z,100575.59
2023-01-20T07:53:51.909Z,100581.34
2023-01-20T07:56:21.845Z,100584.19
2023-01-20T07:58:50.608Z,100590.06
2023-01-20T08:01:21.705Z,100594.56
2023-01-20T08:03:48.784Z,100603.09
2023-01-20T08:06:17.729Z,100600.47
2023-01-20T08:08:44.663Z,100608.84
2023-01-20T08:11:13.799Z,100613.97
2023-01-20T08:13:42.232Z,100614.28
2023-01-20T08:16:11.179Z,100621.94
2023-01-20T08:18:38.527Z,100618.28
2023-01-20T08:21:08.128Z,100621.00
2023-01-20T08:23:35.831Z,100614.41
2023-01-20T08:26:05.073Z,100627.81
2023-01-20T08:28:36.342Z,100628.72
2023-01-20T08:31:06.823Z,100629.44
2023-01-20T08:33:33.398Z,100631.59
2023-01-20T08:36:08.682Z,100627.84
2023-01-20T08:38:35.864Z,100644.69
2023-01-20T08:41:06.866Z,100644.22
2023-01-20T08:43:33.534Z,100639.16
2023-01-20T08:46:05.399Z,100646.00
2023-01-20T08:48:32.364Z,100637.06
2023-01-20T08:50:58.911Z,100651.03
2023-01-20T08:53:26.043Z,100648.88
2023-01-20T08:55:57.395Z,100651.94
2023-01-20T08:58:25.445Z,100663.66
2023-01-20T09:00:52.465Z,100659.69
2023-01-20T09:03:19.047Z,100662.41
2023-01-20T09:05:45.831Z,100669.69
2023-01-20T09:08:13.783Z,100665.97
2023-01-20T09:10:40.276Z,100665.88
2023-01-20T09:13:07.032Z,100659.03
2023-01-20T09:15:33.760Z,100668.03
2023-01-20T09:18:00.309Z,100673.03
2023-01-20T09:20:28.615Z,100671.81
2023-01-20T09:22:55.063Z,100675.84
2023-01-20T09:25:21.548Z,100675.09
2023-01-20T09:27:48.019Z,100674.94
2023-01-20T09:30:14.569Z,100671.88
2023-01-20T09:32:41.074Z,100673.19
2023-01-20T09:35:07.827Z,100669.09
2023-01-20T09:37:53.110Z,100667.63
2023-01-20T09:40:48.114Z,100660.16
2023-01-20T09:44:02.284Z,100662.09
2023-01-20T09:46:38.332Z,100664.06
2023-01-20T09:49:42.645Z,100664.81
2023-01-20T09:52:41.268Z,100666.53
2023-01-20T09:55:18.211Z,100683.56
2023-01-20T09:57:52.239Z,100680.56
2023-01-20T10:00:23.671Z,100689.09
2023-01-20T10:02:54.984Z,100689.59
2023-01-20T10:05:32.697Z,100689.00
2023-01-20T10:08:06.987Z,100683.53
2023-01-20T10:10:48.457Z,100688.16
2023-01-20T10:13:29.143Z,100701.25
2023-01-20T10:15:57.058Z,100711.50
2023-01-20T10:18:45.329Z,100712.91
2023-01-20T10:21:12.220Z,100718.78
2023-01-20T10:24:03.195Z,100719.84
2023-01-20T10:26:47.339Z,100721.31
2023-01-20T10:29:20.315Z,100715.34
2023-01-20T10:32:21.691Z,100725.22
2023-01-20T10:34:52.223Z,100727.84
2023-01-20T10:37:18.976Z,100724.91
2023-01-20T10:40:13.986Z,100723.25
2023-01-20T10:42:40.869Z,100731.28
2023-01-20T10:45:31.816Z,100722.94
2023-01-20T10:48:22.595Z,100724.03
2023-01-20T10:51:21.539Z,100733.19
2023-01-20T10:54:10.060Z,100727.72
2023-01-20T10:56:42.991Z,100728.63
2023-01-20T10:59:15.290Z,100733.38
2023-01-20T11:01:45.237Z,100730.38
2023-01-20T11:04:21.569Z,100739.56
2023-01-20T11:06:54.309Z,100744.78
2023-01-20T11:09:37.106Z,100743.78
2023-01-20T11:12:10.771Z,100749.75
2023-01-20T11:14:37.469Z,100743.41
2023-01-20T11:17:06.851Z,100759.25
2023-01-20T11:19:51.366Z,100759.75
2023-01-20T11:22:32.951Z,100757.75
2023-01-20T11:25:03.910Z,100764.22
2023-01-20T11:27:37.240Z,100766.38
2023-01-20T11:30:08.873Z,100777.78
2023-01-20T11:32:39.114Z,100778.91
2023-01-20T11:35:19.454Z,100774.56
2023-01-20T11:37:45.933Z,100773.44
2023-01-20T11:40:27.190Z,100783.25
2023-01-20T11:42:54.953Z,100774.06
2023-01-20T11:45:39.331Z,100775.28
2023-01-20T11:48:16.414Z,100783.28
2023-01-20T11:50:50.190Z,100771.78
2023-01-20T11:53:21.252Z,100784.50
2023-01-20T11:55:57.079Z,100784.19
2023-01-20T11:58:26.653Z,100780.66
2023-01-20T12:01:00.837Z,100777.59
2023-01-20T12:03:41.220Z,100787.09
2023-01-20T12:06:13.354Z,100786.53
2023-01-20T12:08:49.394Z,100787.16
2023-01-20T12:11:30.350Z,100798.50
2023-01-20T12:14:25.339Z,100798.25
2023-01-20T12:17:06.932Z,100795.41
2023-01-20T12:20:12.174Z,100802.31
2023-01-20T12:23:07.597Z,100802.31
2023-01-20T12:25:43.215Z,100811.91
2023-01-20T12:28:39.493Z,100805.97
2023-01-20T12:31:13.629Z,100807.41
2023-01-20T12:33:45.436Z,100816.44
2023-01-20T12:36:27.463Z,100813.47
2023-01-20T12:38:59.755Z,100815.47
2023-01-20T12:42:05.297Z,100820.50
2023-01-20T12:44:47.178Z,100825.34
2023-01-20T12:47:25.489Z,100830.81
2023-01-20T12:50:07.765Z,100822.91
2023-01-20T12:53:12.384Z,100829.09
2023-01-20T12:56:12.273Z,100834.34
2023-01-20T12:59:04.427Z,100831.91
2023-01-20T13:02:02.804Z,100838.25
2023-01-20T13:04:51.207Z,100842.88
2023-01-20T13:07:51.751Z,100841.34
2023-01-20T13:10:49.392Z,100840.81
2023-01-20T13:13:23.084Z,100843.31
2023-01-20T13:16:05.977Z,100846.09
2023-01-20T13:19:03.949Z,100845.75
2023-01-20T13:21:34.216Z,100841.03
2023-01-20T13:24:02.932Z,100851.97
2023-01-20T13:26:30.960Z,100851.66
2023-01-20T13:29:00.314Z,100842.97
2023-01-20T13:31:43.866Z,100850.75
2023-01-20T13:34:22.417Z,100854.22
2023-01-20T13:37:22.562Z,100860.44
2023-01-20T13:39:50.394Z,100860.47
2023-01-20T13:42:38.263Z,100855.13
2023-01-20T13:45:14.508Z,100859.38
2023-01-20T13:48:06.154Z,100866.13
2023-01-20T13:50:33.671Z,100861.50
2023-01-20T13:53:00.051Z,100877.19
2023-01-20T13:55:43.898Z,100878.72
2023-01-20T13:58:28.746Z,100879.94
2023-01-20T14:01:16.069Z,100896.22
2023-01-20T14:03:42.908Z,100898.59
2023-01-20T14:06:12.309Z,100894.81
2023-01-20T14:08:42.181Z,100892.66
2023-01-20T14:11:26.120Z,100895.91
2023-01-20T14:14:02.064Z,100903.88
2023-01-20T14:16:36.498Z,100899.56
2023-01-20T14:19:22.203Z,100899.19
2023-01-20T14:21:53.151Z,100897.81
2023-01-20T14:24:46.897Z,100902.94
2023-01-20T14:27:24.027Z,100917.47
2023-01-20T14:29:52.370Z,100915.63
2023-01-20T14:32:23.016Z,100918.25
2023-01-20T14:34:50.383Z,100929.53
2023-01-20T14:37:35.948Z,100935.66
2023-01-20T14:40:19.488Z,100931.00
2023-01-20T14:42:59.877Z,100934.28
2023-01-20T14:45:29.314Z,100944.81
2023-01-20T14:47:57.808Z,100940.91
2023-01-20T14:50:25.095Z,100954.06
2023-01-20T14:52:51.714Z,100946.81
2023-01-20T14:55:43.268Z,100955.69
2023-01-20T14:58:15.717Z,100960.59
2023-01-20T15:00:47.132Z,100968.56
2023-01-20T15:03:19.184Z,100973.50
2023-01-20T15:06:20.765Z,100968.47
2023-01-20T15:09:05.244Z,100973.41
2023-01-20T15:11:33.438Z,100975.41
2023-01-20T15:14:02.712Z,100977.69
2023-01-20T15:16:50.679Z,100990.78
2023-01-20T15:19:28.393Z,100995.34
2023-01-20T15:22:10.544Z,100998.94
2023-01-20T15:24:40.958Z,100993.34
2023-01-20T15:27:23.923Z,101005.78
2023-01-20T15:30:18.802Z,101009.84
2023-01-20T15:32:47.204Z,101017.13
2023-01-20T15:35:20.872Z,101017.75
2023-01-20T15:37:47.322Z,101026.84
2023-01-20T15:40:22.077Z,101038.97
2023-01-20T15:42:49.758Z,101034.91
2023-01-20T15:45:17.440Z,101039.47
2023-01-20T15:47:45.828Z,101045.66
2023-01-20T15:50:18.600Z,101049.31
2023-01-20T15:52:45.390Z,101054.72
2023-01-20T15:55:14.025Z,101063.38
2023-01-20T15:57:41.656Z,101070.25
2023-01-20T16:00:16.219Z,101071.56
2023-01-20T16:02:43.578Z,101072.00
2023-01-20T16:05:14.585Z,101073.56
2023-01-20T16:07:44.217Z,101085.16
2023-01-20T16:10:15.870Z,101086.06
2023-01-20T16:12:42.780Z,101086.94
2023-01-20T16:15:14.620Z,101091.41
2023-01-20T16:17:41.303Z,101089.44
2023-01-20T16:20:19.712Z,101099.66
2023-01-20T16:22:46.186Z,101099.25
2023-01-20T16:25:12.635Z,101107.81
2023-01-20T16:27:39.135Z,101114.66
2023-01-20T16:30:06.245Z,101110.22
2023-01-20T16:32:32.669Z,101115.31
2023-01-20T16:34:59.208Z,101120.56
2023-01-20T16:37:25.714Z,101125.53
2023-01-20T16:39:52.123Z,101133.22
2023-01-20T16:42:18.568Z,101130.72
2023-01-20T16:44:45.042Z,101137.53
2023-01-20T16:47:11.574Z,101143.34
2023-01-20T16:49:38.930Z,101145.84
2023-01-20T16:52:05.451Z,101151.28
2023-01-20T16:54:31.936Z,101155.22
2023-01-20T16:56:58.427Z,101159.75
2023-01-20T16:59:25.913Z,101158.16
2023-01-20T17:01:52.404Z,101162.66
2023-01-20T17:04:18.846Z,101166.03
2023-01-20T17:06:45.459Z,101174.00
2023-01-20T17:09:12.031Z,101169.88
2023-01-20T17:11:40.431Z,101173.19
2023-01-20T17:14:09.584Z,101181.09
2023-01-20T17:16:37.082Z,101182.09
2023-01-20T17:19:04.668Z,101195.19
2023-01-20T17:21:32.745Z,101191.97
2023-01-20T17:24:01.158Z,101191.38
2023-01-20T17:26:28.521Z,101185.38
2023-01-20T17:28:57.352Z,101184.34
2023-01-20T17:31:24.445Z,101191.22
2023-01-20T17:33:51.553Z,101202.41
2023-01-20T17:36:18.155Z,101201.84
2023-01-20T17:38:45.007Z,101218.44
2023-01-20T17:41:13.084Z,101215.91
2023-01-20T17:43:42.944Z,101223.19
2023-01-20T17:46:19.456Z,101222.94
2023-01-20T17:48:46.758Z,101226.50
2023-01-20T17:51:14.580Z,101234.88
2023-01-20T17:53:41.589Z,101241.53
2023-01-20T17:56:12.897Z,101245.59
2023-01-20T17:58:41.065Z,101247.31
2023-01-20T18:01:11.806Z,101247.59
2023-01-20T18:03:39.642Z,101256.44
2023-01-20T18:06:08.407Z,101261.50
2023-01-20T18:08:35.198Z,101269.63
2023-01-20T18:11:06.559Z,101270.34
2023-01-20T18:13:33.155Z,101278.13
2023-01-20T18:16:11.100Z,101278.44
2023-01-20T18:18:38.735Z,101285.63
2023-01-20T18:21:12.267Z,101291.94
2023-01-20T18:23:39.634Z,101292.63
2023-01-20T18:26:06.984Z,101282.63
2023-01-20T18:28:34.292Z,101294.69
2023-01-20T18:31:08.915Z,101297.22
2023-01-20T18:33:41.509Z,101301.03
2023-01-20T18:36:10.091Z,101302.53
2023-01-20T18:38:38.313Z,101304.16
2023-01-20T18:41:05.269Z,101307.59
2023-01-20T18:43:31.641Z,101310.09
2023-01-20T18:45:58.175Z,101318.75
2023-01-20T18:48:25.379Z,101326.16
2023-01-20T18:50:52.882Z,101328.75
2023-01-20T18:53:19.304Z,101327.47
2023-01-20T18:55:45.776Z,101339.38
2023-01-20T18:58:16.257Z,101332.13
2023-01-20T19:00:43.322Z,101334.81
2023-01-20T19:03:10.572Z,101334.69
2023-01-20T19:05:37.006Z,101337.31
2023-01-20T19:08:03.563Z,101333.03
2023-01-20T19:10:29.942Z,101340.78
2023-01-20T19:12:56.942Z,101340.59
2023-01-20T19:15:23.578Z,101356.00
2023-01-20T19:17:51.061Z,101351.81
2023-01-20T19:20:17.899Z,101354.38
2023-01-20T19:22:44.436Z,101355.00
2023-01-20T19:25:11.056Z,101357.84
2023-01-20T19:27:37.492Z,101360.41
2023-01-20T19:30:04.161Z,101365.97
2023-01-20T19:32:30.580Z,101369.16
2023-01-20T19:34:57.032Z,101364.06
2023-01-20T19:37:23.456Z,101374.97
2023-01-20T19:39:50.265Z,101376.06
2023-01-20T19:42:16.859Z,101377.50
2023-01-20T19:44:43.260Z,101377.19
2023-01-20T19:47:09.697Z,101375.13
2023-01-20T19:49:36.704Z,101375.03
2023-01-20T19:52:03.170Z,101385.41
2023-01-20T19:54:30.872Z,101385.81
2023-01-20T19:56:57.389Z,101382.06
2023-01-20T19:59:23.802Z,101393.97
2023-01-20T20:01:50.268Z,101395.47
2023-01-20T20:04:20.431Z,101397.28
2023-01-20T20:06:48.817Z,101396.34
2023-01-20T20:09:18.537Z,101408.50
2023-01-20T20:11:45.435Z,101405.47
2023-01-20T20:14:14.354Z,101404.78
2023-01-20T20:16:41.097Z,101413.59
2023-01-20T20:19:09.170Z,101410.41
2023-01-20T20:21:35.780Z,101415.72
2023-01-20T20:24:03.980Z,101427.25
2023-01-20T20:26:32.540Z,101432.09
2023-01-20T20:29:00.576Z,101420.94
2023-01-20T20:31:29.305Z,101424.97
2023-01-20T20:33:57.595Z,101431.94
2023-01-20T20:36:24.765Z,101437.00
2023-01-20T20:38:51.558Z,101436.63
2023-01-20T20:41:18.522Z,101443.22
2023-01-20T20:43:44.970Z,101444.56
2023-01-20T20:46:14.904Z,101454.75
2023-01-20T20:48:41.400Z,101452.84
2023-01-20T20:51:16.449Z,101456.09
2023-01-20T20:53:44.001Z,101456.59
2023-01-20T20:56:16.172Z,101455.53
2023-01-20T20:58:59.759Z,101464.25
2023-01-20T21:01:28.906Z,101469.84
2023-01-20T21:03:57.447Z,101478.59
2023-01-20T21:06:24.470Z,101474.56
2023-01-20T21:08:51.241Z,101479.28
2023-01-20T21:11:18.502Z,101478.53
2023-01-20T21:13:45.013Z,101476.91
2023-01-20T21:16:16.675Z,101481.28
2023-01-20T21:18:43.280Z,101481.38
2023-01-20T21:21:14.364Z,101485.63
2023-01-20T21:23:41.674Z,101489.22
2023-01-20T21:26:12.404Z,101500.75
2023-01-20T21:28:40.633Z,101501.88
2023-01-20T21:31:12.167Z,101498.59
2023-01-20T21:33:40.399Z,101492.38
2023-01-20T21:36:09.067Z,101509.75
2023-01-20T21:38:37.294Z,101506.28
2023-01-20T21:41:09.841Z,101520.78
2023-01-20T21:44:00.213Z,101515.78
2023-01-20T21:46:38.225Z,101515.28
2023-01-20T21:49:24.417Z,101526.09
2023-01-20T21:52:09.117Z,101532.38
2023-01-20T21:54:35.686Z,101536.59
2023-01-20T21:57:02.352Z,101536.66
2023-01-20T21:59:28.755Z,101541.50
2023-01-20T22:01:55.240Z,101546.72
2023-01-20T22:04:21.675Z,101543.31
2023-01-20T22:06:48.088Z,101546.38
2023-01-20T22:09:14.621Z,101551.81
2023-01-20T22:11:41.096Z,101559.63
2023-01-20T22:14:09.641Z,101552.31
2023-01-20T22:16:36.112Z,101555.75
2023-01-20T22:19:02.618Z,101565.88
2023-01-20T22:21:29.552Z,101571.00
2023-01-20T22:23:55.975Z,101576.72
2023-01-20T22:26:22.471Z,101574.81
2023-01-20T22:28:49.024Z,101571.31
2023-01-20T22:31:19.787Z,101575.50
2023-01-20T22:33:54.100Z,101577.06
2023-01-20T22:36:21.745Z,101581.22
2023-01-20T22:38:49.365Z,101578.09
2023-01-20T22:41:16.252Z,101568.75
2023-01-20T22:43:47.737Z,101587.53
2023-01-20T22:46:16.561Z,101575.31
2023-01-20T22:48:43.065Z,101592.03
2023-01-20T22:51:12.304Z,101590.53
2023-01-20T22:53:39.600Z,101597.53
2023-01-20T22:56:10.189Z,101600.53
2023-01-20T22:58:37.155Z,101595.53
2023-01-20T23:01:04.368Z,101602.56
2023-01-20T23:03:30.915Z,101604.84
2023-01-20T23:05:59.704Z,101604.22
2023-01-20T23:08:28.156Z,101608.75
2023-01-20T23:10:56.474Z,101611.94
2023-01-20T23:13:23.658Z,101611.16
2023-01-20T23:15:51.407Z,101615.59
2023-01-20T23:18:18.555Z,101614.53
2023-01-20T23:20:49.488Z,101617.16
2023-01-20T23:23:17.115Z,101623.38
2023-01-20T23:25:43.794Z,101616.34
2023-01-20T23:28:10.851Z,101612.88
2023-01-20T23:30:37.464Z,101627.75
2023-01-20T23:33:04.265Z,101625.16
2023-01-20T23:35:30.729Z,101631.38
2023-01-20T23:37:57.165Z,101629.63
2023-01-20T23:40:23.600Z,101629.59
2023-01-20T23:42:50.434Z,101635.81
2023-01-20T23:45:16.962Z,101635.72
2023-01-20T23:47:43.681Z,101637.50
2023-01-20T23:50:10.808Z,101641.72
2023-01-20T23:52:37.213Z,101645.19
2023-01-20T23:55:03.943Z,101642.66
2023-01-20T23:57:30.382Z,101648.94
2023-01-20T23:59:56.856Z,101655.91
